Time;durP1;ratioP1;P1;durP2;ratioP2;P2;SDS_P1;SDS_P2;PMS_P1;PMS_P2;Temp;Humidity;BMP_temperature;BMP_pressure;BME280_temperature;BME280_humidity;BME280_pressure;Samples;Min_cycle;Max_cycle;Signal;HPM_P1;HPM_P2
2022/07/14 00:01:11;;;;;;;3.47;2.43;;;25.20;1.00;;;;;;5048132;28;20196;-55
2022/07/14 00:03:37;;;;;;;2.70;2.03;;;;;;;;;;5049938;28;20661;-56
2022/07/14 00:06:06;;;;;;;4.27;2.30;;;25.00;1.00;;;;;;5043109;28;20354;-55
2022/07/14 00:08:31;;;;;;;2.27;2.03;;;24.80;1.00;;;;;;5048941;28;20457;-54
2022/07/14 00:10:57;;;;;;;5.57;2.50;;;24.80;1.00;;;;;;5049392;28;20916;-55
2022/07/14 00:13:22;;;;;;;4.40;2.70;;;24.80;1.00;;;;;;5048348;28;20621;-54
2022/07/14 00:15:48;;;;;;;4.97;2.80;;;24.70;1.00;;;;;;5049837;28;20756;-54
2022/07/14 00:18:14;;;;;;;2.60;2.40;;;24.70;1.00;;;;;;5046801;28;20184;-54
2022/07/14 00:20:40;;;;;;;2.83;2.30;;;24.60;1.00;;;;;;5051460;28;20211;-54
2022/07/14 00:23:05;;;;;;;5.00;2.50;;;24.60;1.00;;;;;;5049523;28;20203;-53
2022/07/14 00:25:31;;;;;;;5.83;2.10;;;24.60;1.00;;;;;;5049939;28;20207;-54
2022/07/14 00:27:57;;;;;;;3.07;2.27;;;24.50;1.00;;;;;;5049294;28;20272;-54
2022/07/14 00:30:22;;;;;;;3.07;2.50;;;24.40;1.00;;;;;;5049065;28;20514;-54
2022/07/14 00:32:48;;;;;;;4.23;2.40;;;24.30;1.00;;;;;;5050072;28;20307;-55
2022/07/14 00:35:14;;;;;;;5.50;2.50;;;24.40;1.00;;;;;;5048723;28;20219;-54
2022/07/14 00:37:40;;;;;;;3.37;2.57;;;24.30;1.00;;;;;;5045895;28;20234;-54
2022/07/14 00:40:06;;;;;;;3.63;2.43;;;24.30;1.00;;;;;;5048935;28;20482;-53
2022/07/14 00:42:44;;;;;;;6.23;2.50;;;24.20;1.00;;;;;;5049470;28;20617;-55
2022/07/14 00:45:12;;;;;;;4.17;3.00;;;24.20;1.00;;;;;;5048014;28;20907;-55
2022/07/14 00:47:38;;;;;;;3.10;2.80;;;24.10;1.00;;;;;;5048062;28;20450;-54
2022/07/14 00:50:06;;;;;;;4.87;2.73;;;24.10;1.00;;;;;;5048176;28;20454;-54
2022/07/14 00:52:32;;;;;;;4.40;2.50;;;24.10;1.00;;;;;;5049299;28;20492;-55
2022/07/14 00:54:58;;;;;;;3.00;2.17;;;24.00;1.00;;;;;;5046593;28;20979;-54
2022/07/14 00:57:24;;;;;;;3.10;2.73;;;23.90;1.00;;;;;;5045929;28;20200;-55
2022/07/14 00:59:50;;;;;;;3.57;2.60;;;23.90;1.00;;;;;;5044509;28;20190;-55
2022/07/14 01:02:17;;;;;;;5.80;2.97;;;23.90;1.00;;;;;;5045701;28;20454;-53
2022/07/14 01:04:45;;;;;;;3.13;2.80;;;23.80;1.00;;;;;;5049084;28;20191;-53
2022/07/14 01:07:14;;;;;;;3.93;3.00;;;23.80;1.00;;;;;;5048597;28;20446;-53
2022/07/14 01:09:40;;;;;;;4.00;2.77;;;23.80;1.00;;;;;;5048416;28;20454;-55
2022/07/14 01:12:07;;;;;;;8.03;2.97;;;23.90;1.00;;;;;;5048297;28;20462;-55
2022/07/14 01:14:35;;;;;;;6.20;2.60;;;23.80;1.00;;;;;;5049093;28;20704;-53
2022/07/14 01:17:01;;;;;;;4.33;3.00;;;23.80;1.00;;;;;;5048672;28;20449;-54
2022/07/14 01:19:27;;;;;;;3.67;3.00;;;23.60;1.00;;;;;;5050006;28;20446;-54
2022/07/14 01:21:54;;;;;;;4.40;2.40;;;23.70;1.00;;;;;;5047945;28;20501;-53
2022/07/14 01:24:20;;;;;;;5.10;3.20;;;23.70;1.00;;;;;;5049131;28;20854;-54
2022/07/14 01:26:46;;;;;;;8.00;2.77;;;23.70;1.00;;;;;;5047989;28;20438;-55
2022/07/14 01:29:11;;;;;;;4.53;3.03;;;23.60;1.00;;;;;;5050506;28;20461;-53
2022/07/14 01:31:37;;;;;;;4.63;2.50;;;23.60;1.00;;;;;;5047033;28;20689;-54
2022/07/14 01:34:03;;;;;;;4.30;3.13;;;23.60;1.00;;;;;;5047130;28;20793;-54
2022/07/14 01:36:28;;;;;;;9.33;3.00;;;23.60;1.00;;;;;;5048590;28;20192;-53
2022/07/14 01:38:54;;;;;;;3.20;2.90;;;23.60;1.00;;;;;;5044215;28;20184;-53
2022/07/14 01:41:23;;;;;;;3.27;2.97;;;23.70;1.00;;;;;;5046637;28;20200;-54
2022/07/14 01:43:49;;;;;;;3.90;2.83;;;23.60;1.00;;;;;;5049333;28;20261;-53
2022/07/14 01:46:14;;;;;;;2.90;2.60;;;23.60;1.00;;;;;;5047285;28;20779;-54
2022/07/14 01:48:41;;;;;;;3.63;2.93;;;23.60;1.00;;;;;;5048063;28;20450;-53
2022/07/14 01:51:06;;;;;;;3.20;2.90;;;23.60;1.00;;;;;;5051264;28;20207;-53
2022/07/14 01:53:32;;;;;;;3.63;3.33;;;23.70;1.00;;;;;;5048683;28;20470;-54
2022/07/14 01:55:58;;;;;;;3.70;3.03;;;23.70;1.00;;;;;;5046164;28;20239;-53
2022/07/14 01:58:24;;;;;;;3.80;3.50;;;23.60;1.00;;;;;;5047689;28;20450;-54
2022/07/14 02:03:34;;;;;;;6.10;3.80;;;23.50;1.00;;;;;;5045189;28;20449;-56
2022/07/14 02:06:00;;;;;;;4.70;3.53;;;23.40;1.00;;;;;;5046668;28;20947;-54
2022/07/14 02:08:26;;;;;;;3.90;3.60;;;23.40;1.00;;;;;;5048758;28;20453;-55
2022/07/14 02:13:37;;;;;;;4.30;3.63;;;23.30;1.00;;;;;;5039383;28;20550;-54
2022/07/14 02:16:05;;;;;;;5.03;3.70;;;23.30;1.00;;;;;;5043634;28;20488;-53
2022/07/14 02:18:31;;;;;;;5.67;3.90;;;23.30;1.00;;;;;;5048556;28;20206;-55
2022/07/14 02:20:57;;;;;;;3.03;2.83;;;23.10;1.00;;;;;;5047353;28;20451;-54
2022/07/14 02:23:23;;;;;;;4.10;3.70;;;23.10;1.00;;;;;;5048364;28;20683;-54
2022/07/14 02:25:49;;;;;;;4.13;3.73;;;23.00;1.00;;;;;;5044399;28;20234;-54
2022/07/14 02:28:15;;;;;;;5.83;3.83;;;22.90;1.00;;;;;;5049191;28;20451;-53
2022/07/14 02:30:41;;;;;;;4.03;3.53;;;23.00;1.00;;;;;;5047066;28;21082;-52
2022/07/14 02:33:07;;;;;;;4.30;3.90;;;23.00;1.00;;;;;;5045368;28;20556;-54
2022/07/14 02:35:33;;;;;;;3.60;3.30;;;23.00;1.00;;;;;;5048897;28;20190;-54
2022/07/14 02:37:59;;;;;;;5.13;3.60;;;23.00;1.00;;;;;;5050742;28;20442;-55
2022/07/14 02:40:25;;;;;;;3.93;3.63;;;22.90;1.00;;;;;;5050430;28;20461;-54
2022/07/14 02:42:50;;;;;;;5.40;4.20;;;22.80;1.00;;;;;;5051974;28;20261;-54
2022/07/14 02:45:16;;;;;;;4.17;3.77;;;22.80;1.00;;;;;;5046188;28;20256;-54
2022/07/14 02:47:42;;;;;;;4.80;3.77;;;22.70;1.00;;;;;;5047615;28;20188;-55
2022/07/14 02:50:10;;;;;;;5.50;4.13;;;22.70;1.00;;;;;;5050297;28;20187;-53
2022/07/14 02:52:36;;;;;;;4.33;3.90;;;22.60;1.00;;;;;;5049161;28;20465;-55
2022/07/14 02:55:01;;;;;;;4.87;4.47;;;22.60;1.00;;;;;;5052829;28;20784;-54
2022/07/14 02:57:27;;;;;;;4.63;4.23;;;22.50;1.00;;;;;;5051907;28;20569;-55
2022/07/14 02:59:53;;;;;;;4.10;3.70;;;22.50;1.00;;;;;;5050213;28;20187;-54
2022/07/14 03:02:19;;;;;;;4.23;3.93;;;22.50;1.00;;;;;;5049071;28;20196;-54
2022/07/14 03:04:44;;;;;;;4.87;4.37;;;22.50;1.00;;;;;;5047855;28;20196;-55
2022/07/14 03:07:10;;;;;;;7.87;5.50;;;22.50;1.00;;;;;;5052890;28;20446;-55
2022/07/14 03:09:35;;;;;;;5.37;4.63;;;22.50;1.00;;;;;;5051692;28;20188;-54
2022/07/14 03:12:01;;;;;;;4.40;3.60;;;22.40;1.00;;;;;;5050779;28;20211;-54
2022/07/14 03:14:27;;;;;;;5.77;3.93;;;22.40;1.00;;;;;;5052526;28;20641;-53
2022/07/14 03:16:52;;;;;;;5.30;4.00;;;22.40;1.00;;;;;;5050502;28;20586;-53
2022/07/14 03:19:18;;;;;;;6.40;4.00;;;22.40;1.00;;;;;;5049982;28;20176;-54
2022/07/14 03:21:44;;;;;;;7.87;4.53;;;22.50;1.00;;;;;;5049268;28;20196;-53
2022/07/14 03:24:09;;;;;;;5.40;4.20;;;22.60;1.00;;;;;;5049491;28;20195;-54
2022/07/14 03:26:35;;;;;;;5.40;4.60;;;22.50;1.00;;;;;;5049747;28;20192;-53
2022/07/14 03:29:02;;;;;;;5.50;5.00;;;22.60;1.00;;;;;;5050412;28;20191;-55
2022/07/14 03:31:28;;;;;;;4.53;3.93;;;22.40;1.00;;;;;;5050717;28;20505;-53
2022/07/14 03:33:53;;;;;;;4.40;3.90;;;22.40;1.00;;;;;;5051250;28;20555;-55
2022/07/14 03:36:20;;;;;;;6.43;4.07;;;22.40;1.00;;;;;;5051648;28;20664;-53
2022/07/14 03:38:46;;;;;;;4.40;4.00;;;22.40;1.00;;;;;;5050529;28;20184;-55
2022/07/14 03:41:12;;;;;;;4.53;4.13;;;22.30;1.00;;;;;;5050575;28;20454;-54
2022/07/14 03:43:38;;;;;;;4.90;4.10;;;22.20;1.00;;;;;;5048903;28;20475;-53
2022/07/14 03:46:06;;;;;;;4.70;4.40;;;22.20;1.00;;;;;;5048059;28;20200;-53
2022/07/14 03:48:33;;;;;;;5.00;3.97;;;22.20;1.00;;;;;;5048769;28;20446;-53
2022/07/14 03:51:00;;;;;;;4.97;4.10;;;22.10;1.00;;;;;;5051365;28;20518;-54
2022/07/14 03:53:26;;;;;;;5.10;4.70;;;22.00;1.00;;;;;;5047090;28;20552;-55
2022/07/14 03:55:51;;;;;;;5.13;4.63;;;21.90;1.00;;;;;;5051093;28;20604;-52
2022/07/14 03:58:17;;;;;;;6.10;4.50;;;22.00;1.00;;;;;;5049642;28;20453;-54
2022/07/14 04:00:43;;;;;;;5.33;4.23;;;22.00;1.00;;;;;;5051826;28;20177;-53
2022/07/14 04:03:09;;;;;;;4.90;4.50;;;22.00;1.00;;;;;;5047984;28;20273;-53
2022/07/14 04:05:34;;;;;;;4.73;4.33;;;22.10;1.00;;;;;;5050329;28;20199;-55
2022/07/14 04:08:00;;;;;;;5.10;4.60;;;22.10;1.00;;;;;;5051112;28;20446;-54
2022/07/14 04:10:26;;;;;;;4.20;3.90;;;22.20;1.00;;;;;;5050657;28;20195;-53
2022/07/14 04:12:52;;;;;;;4.53;4.13;;;22.20;1.00;;;;;;5050678;28;20238;-53
2022/07/14 04:15:17;;;;;;;4.03;3.73;;;22.20;1.00;;;;;;5050900;28;20192;-54
2022/07/14 04:17:43;;;;;;;4.47;4.07;;;22.20;1.00;;;;;;5050443;28;20186;-54
2022/07/14 04:20:09;;;;;;;4.70;4.23;;;22.30;1.00;;;;;;5050493;28;20630;-53
2022/07/14 04:22:35;;;;;;;4.30;3.90;;;22.30;1.00;;;;;;5050283;28;20188;-54
2022/07/14 04:25:01;;;;;;;5.87;4.80;;;22.30;1.00;;;;;;5049341;28;20453;-55
2022/07/14 04:27:27;;;;;;;7.00;4.50;;;22.20;1.00;;;;;;5047763;28;20199;-55
2022/07/14 04:29:52;;;;;;;5.90;4.17;;;22.40;1.00;;;;;;5050316;28;20486;-54
2022/07/14 04:32:18;;;;;;;5.30;4.57;;;22.40;1.00;;;;;;5055213;28;20473;-54
2022/07/14 04:34:44;;;;;;;4.57;4.17;;;22.60;1.00;;;;;;5050309;28;20598;-54
2022/07/14 04:37:11;;;;;;;5.63;4.03;;;22.70;1.00;;;;;;5049946;28;20275;-52
2022/07/14 04:39:37;;;;;;;6.13;4.40;;;22.90;1.00;;;;;;5048026;28;20188;-54
2022/07/14 04:42:03;;;;;;;11.63;4.40;;;22.80;1.00;;;;;;5051122;28;20516;-52
2022/07/14 04:44:29;;;;;;;5.80;4.33;;;22.80;1.00;;;;;;5050343;28;20196;-53
2022/07/14 04:46:55;;;;;;;6.17;3.97;;;22.70;1.00;;;;;;5055612;28;20451;-54
2022/07/14 04:52:05;;;;;;;6.63;4.50;;;22.80;1.00;;;;;;5052256;28;20607;-54
2022/07/14 04:54:35;;;;;;;5.57;4.30;;;22.80;1.00;;;;;;5050166;28;20481;-53
2022/07/14 04:57:03;;;;;;;5.20;4.43;;;22.80;1.00;;;;;;5050008;28;20442;-54
2022/07/14 04:59:30;;;;;;;5.13;3.97;;;22.90;1.00;;;;;;5049095;28;20449;-54
2022/07/14 05:01:56;;;;;;;5.10;4.30;;;22.80;1.00;;;;;;5047943;28;20829;-54
2022/07/14 05:04:22;;;;;;;4.60;4.20;;;22.80;1.00;;;;;;5050093;28;21181;-55
2022/07/14 05:06:49;;;;;;;4.47;3.93;;;22.90;1.00;;;;;;5049347;28;20451;-53
2022/07/14 05:09:18;;;;;;;6.10;4.00;;;22.90;1.00;;;;;;5050557;28;20438;-55
2022/07/14 05:11:45;;;;;;;6.63;4.73;;;23.00;1.00;;;;;;5049775;28;20446;-55
2022/07/14 05:14:11;;;;;;;5.73;4.03;;;23.30;1.00;;;;;;5050806;28;20469;-54
2022/07/14 05:16:38;;;;;;;4.90;3.83;;;23.40;1.00;;;;;;5049163;28;20430;-53
2022/07/14 05:19:04;;;;;;;6.70;3.90;;;23.40;1.00;;;;;;5062709;28;20557;-52
2022/07/14 05:21:30;;;;;;;4.27;3.63;;;23.40;1.00;;;;;;5064075;28;20442;-54
2022/07/14 05:23:57;;;;;;;5.30;4.47;;;23.60;1.00;;;;;;5049974;28;20477;-53
2022/07/14 05:26:23;;;;;;;4.40;3.90;;;23.60;1.00;;;;;;5049937;28;20445;-54
2022/07/14 05:28:50;;;;;;;4.97;3.27;;;23.60;1.00;;;;;;5049526;28;20451;-54
2022/07/14 05:31:16;;;;;;;6.67;3.90;;;23.70;1.00;;;;;;5049815;28;21057;-55
2022/07/14 05:33:42;;;;;;;5.10;3.47;;;23.70;1.00;;;;;;5050107;28;20485;-53
2022/07/14 05:36:07;;;;;;;5.20;3.93;;;23.70;1.00;;;;;;5049451;28;20682;-54
2022/07/14 05:38:33;;;;;;;4.10;3.70;;;23.90;1.00;;;;;;5050045;28;20184;-54
2022/07/14 05:41:01;;;;;;;4.40;4.00;;;23.90;1.00;;;;;;5048779;28;20219;-54
2022/07/14 05:43:31;;;;;;;4.93;4.33;;;24.10;1.00;;;;;;5047100;28;20203;-54
2022/07/14 05:46:07;;;;;;;5.60;4.30;;;24.10;1.00;;;;;;5049881;28;20441;-54
2022/07/14 05:48:34;;;;;;;10.50;5.70;;;24.10;1.00;;;;;;5048425;28;20457;-54
2022/07/14 05:51:16;;;;;;;9.57;4.33;;;24.20;1.00;;;;;;5047802;28;20442;-54
2022/07/14 05:53:43;;;;;;;4.80;4.37;;;24.20;1.00;;;;;;5048624;28;20523;-54
2022/07/14 05:56:13;;;;;;;4.70;4.30;;;24.20;1.00;;;;;;5053501;28;20674;-55
2022/07/14 05:58:39;;;;;;;4.87;4.47;;;24.00;1.00;;;;;;5046096;28;20844;-53
2022/07/14 06:01:07;;;;;;;5.67;5.00;;;24.00;1.00;;;;;;5048405;28;20482;-56
2022/07/14 06:03:32;;;;;;;6.63;5.23;;;24.10;1.00;;;;;;5048474;28;20457;-54
2022/07/14 06:06:09;;;;;;;6.00;4.50;;;24.00;1.00;;;;;;5047013;28;20454;-55
2022/07/14 06:08:35;;;;;;;4.93;4.43;;;24.00;1.00;;;;;;5047216;28;20697;-54
2022/07/14 06:11:01;;;;;;;4.70;4.30;;;24.00;1.00;;;;;;5049917;28;20438;-53
2022/07/14 06:13:28;;;;;;;5.60;4.80;;;24.00;1.00;;;;;;5049267;28;20208;-54
2022/07/14 06:15:58;;;;;;;7.27;4.80;;;24.10;1.00;;;;;;5052165;28;20575;-55
2022/07/14 06:18:24;;;;;;;5.43;4.93;;;24.10;1.00;;;;;;5053902;28;20804;-54
2022/07/14 06:20:50;;;;;;;5.27;4.87;;;23.90;1.00;;;;;;5053332;28;20449;-54
2022/07/14 06:23:16;;;;;;;5.90;5.23;;;23.70;1.00;;;;;;5053558;28;20430;-53
2022/07/14 06:25:41;;;;;;;5.10;4.70;;;23.70;1.00;;;;;;5053045;28;20195;-53
2022/07/14 06:28:07;;;;;;;6.93;4.93;;;23.40;1.00;;;;;;5053031;28;20194;-53
2022/07/14 06:30:34;;;;;;;5.53;5.03;;;21.50;1.00;;;;;;5059862;28;20238;-55
2022/07/14 06:32:59;;;;;;;5.07;4.67;;;23.40;1.00;;;;;;5073867;28;20678;-54
2022/07/14 06:35:25;;;;;;;6.03;4.70;;;23.50;1.00;;;;;;5073828;28;20426;-53
2022/07/14 06:37:55;;;;;;;8.20;5.27;;;23.50;1.00;;;;;;5056879;28;20224;-54
2022/07/14 06:40:21;;;;;;;5.33;4.70;;;23.70;1.00;;;;;;5053691;28;20207;-54
2022/07/14 06:42:48;;;;;;;7.60;4.47;;;23.70;1.00;;;;;;5067374;28;20491;-54
2022/07/14 06:45:14;;;;;;;5.27;4.47;;;24.00;1.00;;;;;;5073401;28;20536;-54
2022/07/14 06:47:40;;;;;;;5.20;4.70;;;24.30;1.00;;;;;;5053339;28;20442;-55
2022/07/14 06:50:06;;;;;;;8.63;4.90;;;24.40;1.00;;;;;;5063019;28;20461;-54
2022/07/14 06:52:32;;;;;;;8.60;4.90;;;24.50;1.00;;;;;;5057625;28;20767;-54
2022/07/14 06:55:04;;;;;;;6.70;6.03;;;24.50;1.00;;;;;;5053371;28;20496;-55
2022/07/14 06:57:29;;;;;;;5.70;5.13;;;24.60;1.00;;;;;;5067520;28;20191;-55
2022/07/14 06:59:55;;;;;;;7.63;5.03;;;24.70;1.00;;;;;;5073008;28;20433;-54
2022/07/14 07:02:21;;;;;;;9.27;4.90;;;;;;;;;;5073143;28;20620;-53
2022/07/14 07:06:43;;;;;;;4.90;4.10;;;24.30;1.00;;;;;;5072730;28;20206;-54
2022/07/14 07:07:34;;;;;;;4.83;4.37;;;24.20;1.00;;;;;;5060618;28;20430;-54
2022/07/14 07:10:00;;;;;;;5.57;4.53;;;24.40;1.00;;;;;;5052607;28;20447;-53
2022/07/14 07:12:25;;;;;;;5.33;4.60;;;24.60;1.00;;;;;;5052424;28;20466;-53
2022/07/14 07:14:51;;;;;;;5.40;4.50;;;24.30;1.00;;;;;;5064108;28;20258;-55
2022/07/14 07:17:17;;;;;;;5.53;4.00;;;24.10;1.00;;;;;;5071240;28;20494;-53
2022/07/14 07:19:42;;;;;;;4.47;4.13;;;24.00;1.00;;;;;;5066618;28;20223;-54
2022/07/14 07:22:08;;;;;;;6.90;4.43;;;23.90;1.00;;;;;;5059587;28;20179;-53
2022/07/14 07:24:34;;;;;;;4.30;3.90;;;24.00;1.00;;;;;;5052405;28;20261;-54
2022/07/14 07:26:59;;;;;;;4.47;4.10;;;24.00;1.00;;;;;;5053584;28;20180;-56
2022/07/14 07:29:25;;;;;;;5.93;5.10;;;24.10;1.00;;;;;;5072423;28;20194;-55
2022/07/14 07:31:50;;;;;;;4.80;4.40;;;24.30;1.00;;;;;;5055985;28;20215;-55
2022/07/14 07:34:16;;;;;;;4.37;3.97;;;24.30;1.00;;;;;;5052522;28;20188;-54
2022/07/14 07:36:42;;;;;;;5.97;3.90;;;24.50;1.00;;;;;;5063641;28;20706;-54
2022/07/14 07:39:07;;;;;;;4.43;4.03;;;24.70;1.00;;;;;;5072214;28;20179;-54
2022/07/14 07:41:33;;;;;;;4.40;4.10;;;25.00;1.00;;;;;;5058148;28;20556;-55
2022/07/14 07:43:59;;;;;;;4.80;3.83;;;25.20;1.00;;;;;;5052413;28;20191;-53
2022/07/14 07:46:26;;;;;;;4.80;4.40;;;25.20;1.00;;;;;;5052226;28;20974;-54
2022/07/14 07:48:51;;;;;;;5.87;4.67;;;25.10;1.00;;;;;;5052145;28;20183;-54
2022/07/14 07:51:17;;;;;;;5.53;4.67;;;25.10;1.00;;;;;;5051764;28;20443;-55
2022/07/14 07:53:43;;;;;;;7.27;4.00;;;25.30;1.00;;;;;;5051846;28;20200;-55
2022/07/14 07:56:10;;;;;;;4.70;3.90;;;25.10;1.00;;;;;;5051996;28;20675;-53
2022/07/14 07:58:35;;;;;;;5.70;4.57;;;25.30;1.00;;;;;;5052176;28;20437;-55
2022/07/14 08:01:01;;;;;;;4.47;4.13;;;25.40;1.00;;;;;;5052079;28;20443;-54
2022/07/14 08:03:27;;;;;;;3.90;3.60;;;25.90;1.00;;;;;;5051751;28;20188;-52
2022/07/14 08:05:53;;;;;;;9.27;7.50;;;26.20;1.00;;;;;;5060245;28;20603;-53
2022/07/14 08:08:18;;;;;;;4.53;4.10;;;26.20;1.00;;;;;;5071661;28;20179;-55
2022/07/14 08:10:44;;;;;;;6.83;5.23;;;26.00;1.00;;;;;;5062046;28;20176;-53
2022/07/14 08:13:10;;;;;;;5.50;4.70;;;25.90;1.00;;;;;;5051848;28;20287;-56
2022/07/14 08:15:36;;;;;;;6.80;4.50;;;25.80;1.00;;;;;;5069526;28;20183;-53
2022/07/14 08:18:03;;;;;;;5.10;4.60;;;25.80;1.00;;;;;;5071697;28;20433;-54
2022/07/14 08:20:29;;;;;;;3.73;3.40;;;26.10;1.00;;;;;;5071495;28;20457;-53
2022/07/14 08:22:55;;;;;;;3.57;3.23;;;25.80;1.00;;;;;;5071785;28;20445;-55
2022/07/14 08:25:20;;;;;;;4.60;3.70;;;25.80;1.00;;;;;;5064930;28;20405;-54
2022/07/14 08:27:46;;;;;;;6.03;3.83;;;25.90;1.00;;;;;;5051115;28;20196;-54
2022/07/14 08:30:12;;;;;;;5.80;3.90;;;26.10;1.00;;;;;;5051289;28;20223;-52
2022/07/14 08:32:44;;;;;;;3.80;3.50;;;26.30;1.00;;;;;;5050525;28;20272;-54
2022/07/14 08:35:12;;;;;;;5.40;3.97;;;26.20;1.00;;;;;;5051390;28;20176;-53
2022/07/14 08:37:38;;;;;;;7.63;4.00;;;26.50;1.00;;;;;;5103508;28;20433;-53
2022/07/14 08:40:06;;;;;;;4.53;4.10;;;26.50;1.00;;;;;;5068729;28;21000;-55
2022/07/14 08:42:32;;;;;;;4.33;3.70;;;26.00;1.00;;;;;;5070900;28;20849;-53
2022/07/14 08:44:59;;;;;;;6.30;3.33;;;25.20;1.00;;;;;;5064486;28;20442;-55
2022/07/14 08:47:25;;;;;;;6.40;3.17;;;25.00;1.00;;;;;;5050293;28;20533;-54
2022/07/14 08:49:52;;;;;;;5.97;3.50;;;25.60;1.00;;;;;;5060264;28;20547;-54
2022/07/14 08:52:17;;;;;;;4.77;3.30;;;26.00;1.00;;;;;;5070891;28;20469;-55
2022/07/14 08:54:45;;;;;;;5.27;3.30;;;26.40;1.00;;;;;;5070453;28;20434;-55
2022/07/14 08:57:11;;;;;;;6.00;3.40;;;26.30;1.00;;;;;;5070925;28;20176;-54
2022/07/14 08:59:38;;;;;;;3.53;3.23;;;26.30;1.00;;;;;;5055430;28;20533;-55
2022/07/14 09:02:04;;;;;;;3.43;3.13;;;26.20;1.00;;;;;;5050680;28;20446;-53
2022/07/14 09:04:30;;;;;;;8.03;3.50;;;26.60;1.00;;;;;;5050962;28;20433;-55
2022/07/14 09:06:56;;;;;;;6.10;3.20;;;27.10;1.00;;;;;;5053196;28;20439;-56
2022/07/14 09:09:24;;;;;;;3.80;2.80;;;27.10;1.00;;;;;;5070687;28;20482;-56
2022/07/14 09:12:07;;;;;;;4.07;3.40;;;26.80;1.00;;;;;;5070718;28;20266;-54
2022/07/14 09:17:23;;;;;;;3.30;2.50;;;27.00;1.00;;;;;;5050395;28;20452;-55
2022/07/14 09:20:10;;;;;;;2.97;2.77;;;27.30;1.00;;;;;;5055935;28;20445;-54
2022/07/14 09:22:42;;;;;;;4.33;3.53;;;27.40;1.00;;;;;;5070501;28;20502;-55
2022/07/14 09:25:16;;;;;;;4.40;3.47;;;27.10;1.00;;;;;;5070091;28;20492;-54
2022/07/14 09:27:45;;;;;;;7.60;4.30;;;27.10;1.00;;;;;;5070532;28;20516;-55
2022/07/14 09:30:12;;;;;;;3.53;3.20;;;27.20;1.00;;;;;;5070112;28;20997;-53
2022/07/14 09:32:42;;;;;;;4.43;3.50;;;27.10;1.00;;;;;;5070624;28;20553;-54
2022/07/14 09:35:11;;;;;;;4.13;3.83;;;27.40;1.00;;;;;;5069997;28;20429;-54
2022/07/14 09:37:38;;;;;;;4.67;3.47;;;27.50;1.00;;;;;;5070984;28;20438;-55
2022/07/14 09:40:09;;;;;;;4.27;3.50;;;27.10;1.00;;;;;;5070389;28;20445;-55
2022/07/14 09:42:59;;;;;;;4.07;3.67;;;27.10;1.00;;;;;;5070461;28;20439;-55
2022/07/14 09:45:36;;;;;;;4.07;3.57;;;27.50;1.00;;;;;;5069904;28;20433;-55
2022/07/14 09:48:07;;;;;;;6.00;5.23;;;27.80;1.00;;;;;;5055577;28;20436;-54
2022/07/14 09:50:44;;;;;;;4.57;3.53;;;27.80;1.00;;;;;;5065577;28;21490;-54
2022/07/14 09:53:17;;;;;;;3.97;3.57;;;27.50;1.00;;;;;;5070186;28;20461;-52
2022/07/14 09:56:06;;;;;;;5.73;3.37;;;27.30;1.00;;;;;;5070233;28;20473;-55
2022/07/14 09:58:33;;;;;;;8.40;4.20;;;27.50;1.00;;;;;;5063135;28;20442;-54
2022/07/14 10:01:28;;;;;;;4.50;4.10;;;27.30;1.00;;;;;;5069924;28;20800;-54
2022/07/14 10:03:55;;;;;;;7.03;3.63;;;27.10;1.00;;;;;;5060947;28;20437;-55
2022/07/14 10:06:21;;;;;;;4.50;3.30;;;27.10;1.00;;;;;;5069562;28;20433;-55
2022/07/14 10:08:54;;;;;;;4.20;3.80;;;27.20;1.00;;;;;;5069834;28;20935;-54
2022/07/14 10:11:20;;;;;;;4.43;3.60;;;27.20;1.00;;;;;;5069402;28;20436;-55
2022/07/14 10:13:46;;;;;;;3.80;3.50;;;27.00;1.00;;;;;;5062370;28;20458;-54
2022/07/14 10:16:14;;;;;;;4.90;3.80;;;26.80;1.00;;;;;;5049505;28;20179;-54
2022/07/14 10:18:42;;;;;;;6.10;3.70;;;26.70;1.00;;;;;;5048524;28;20438;-54
2022/07/14 10:21:10;;;;;;;3.03;2.73;;;26.80;1.00;;;;;;5049772;28;20541;-55
2022/07/14 10:23:37;;;;;;;4.20;3.20;;;27.10;1.00;;;;;;5060619;28;20835;-55
2022/07/14 10:26:08;;;;;;;3.80;3.40;;;27.20;1.00;;;;;;5069821;28;20946;-55
2022/07/14 10:28:35;;;;;;;3.43;3.03;;;26.70;1.00;;;;;;5069308;28;20441;-55
2022/07/14 10:31:24;;;;;;;3.43;3.13;;;26.60;1.00;;;;;;5051566;28;20478;-54
2022/07/14 10:34:08;;;;;;;4.07;3.17;;;26.80;1.00;;;;;;5049438;28;20203;-55
2022/07/14 10:36:45;;;;;;;4.30;3.40;;;26.90;1.00;;;;;;5049656;28;20776;-54
2022/07/14 10:39:36;;;;;;;3.57;3.17;;;26.40;1.00;;;;;;5064336;28;20433;-55
2022/07/14 10:42:34;;;;;;;3.80;3.40;;;26.80;1.00;;;;;;5069649;28;20430;-54
2022/07/14 10:45:01;;;;;;;5.83;5.23;;;26.80;1.00;;;;;;5069516;28;20430;-56
2022/07/14 10:47:50;;;;;;;4.40;3.00;;;26.90;1.00;;;;;;5055976;28;20442;-55
2022/07/14 10:50:21;;;;;;;5.87;3.53;;;26.80;1.00;;;;;;5066078;28;20497;-55
2022/07/14 10:52:57;;;;;;;4.63;3.40;;;27.00;1.00;;;;;;5049033;28;20458;-53
2022/07/14 10:55:32;;;;;;;5.87;3.10;;;27.10;1.00;;;;;;5056442;28;20966;-55
2022/07/14 10:58:07;;;;;;;8.23;3.20;;;27.10;1.00;;;;;;5070410;28;20440;-55
2022/07/14 11:00:44;;;;;;;6.07;3.20;;;27.00;1.00;;;;;;5063641;28;20430;-54
2022/07/14 11:03:19;;;;;;;3.80;3.17;;;27.30;1.00;;;;;;5072984;28;20502;-52
2022/07/14 11:06:00;;;;;;;3.37;3.10;;;27.10;1.00;;;;;;5072822;28;20799;-54
2022/07/14 11:08:26;;;;;;;3.60;3.30;;;27.00;1.00;;;;;;5072975;28;20451;-56
2022/07/14 11:10:56;;;;;;;5.83;3.13;;;27.40;1.00;;;;;;5068253;28;20438;-55
2022/07/14 11:13:23;;;;;;;5.97;4.03;;;27.60;1.00;;;;;;5052534;28;20505;-54
2022/07/14 11:15:53;;;;;;;4.90;3.87;;;27.90;1.00;;;;;;5056536;28;20838;-54
2022/07/14 11:18:24;;;;;;;3.87;3.43;;;27.90;1.00;;;;;;5052539;28;20473;-54
2022/07/14 11:21:01;;;;;;;6.33;3.13;;;27.50;1.00;;;;;;5065028;28;20504;-55
2022/07/14 11:23:46;;;;;;;4.53;2.80;;;27.50;1.00;;;;;;5052858;28;20488;-56
2022/07/14 11:26:34;;;;;;;3.63;3.30;;;27.80;1.00;;;;;;5051291;28;20442;-55
2022/07/14 11:29:02;;;;;;;4.00;3.60;;;28.20;1.00;;;;;;5050497;28;20792;-54
2022/07/14 11:31:41;;;;;;;5.33;3.73;;;28.70;1.00;;;;;;5052423;28;20474;-54
2022/07/14 11:37:12;;;;;;;4.77;3.80;;;28.90;1.00;;;;;;5072583;28;20924;-54
2022/07/14 11:39:39;;;;;;;4.90;3.63;;;29.50;1.00;;;;;;5072205;28;20430;-53
2022/07/14 11:42:25;;;;;;;3.87;3.57;;;29.80;1.00;;;;;;5072304;28;20426;-54
2022/07/14 11:44:54;;;;;;;3.80;3.37;;;29.80;1.00;;;;;;5063633;28;20438;-52
2022/07/14 11:47:26;;;;;;;3.53;3.23;;;30.10;1.00;;;;;;5062418;28;20429;-57
2022/07/14 11:49:56;;;;;;;4.17;3.37;;;29.90;1.00;;;;;;5072585;28;20464;-55
2022/07/14 11:52:33;;;;;;;4.03;3.63;;;29.70;1.00;;;;;;5060920;28;20465;-54
2022/07/14 11:55:01;;;;;;;4.37;3.90;;;29.40;1.00;;;;;;5053692;28;20771;-55
2022/07/14 11:57:28;;;;;;;4.40;3.43;;;29.50;1.00;;;;;;5051953;28;20430;-55
2022/07/14 12:00:06;;;;;;;3.70;3.40;;;29.60;1.00;;;;;;5066289;28;20419;-55
2022/07/14 12:02:32;;;;;;;3.67;3.17;;;29.20;1.00;;;;;;5061756;28;20442;-55
2022/07/14 12:05:00;;;;;;;6.17;3.80;;;29.50;1.00;;;;;;5051883;28;20442;-55
2022/07/14 12:07:48;;;;;;;4.20;3.87;;;29.60;1.00;;;;;;5054779;28;20187;-56
2022/07/14 12:10:16;;;;;;;6.83;3.30;;;29.70;1.00;;;;;;5070695;28;20526;-54
2022/07/14 12:12:45;;;;;;;4.47;4.07;;;29.30;1.00;;;;;;5092457;28;20465;-55
2022/07/14 12:15:20;;;;;;;5.53;3.60;;;29.60;1.00;;;;;;5069146;28;20467;-55
2022/07/14 12:17:50;;;;;;;3.70;3.40;;;29.90;1.00;;;;;;5052430;28;20496;-55
2022/07/14 12:20:16;;;;;;;4.33;3.40;;;29.80;1.00;;;;;;5049320;28;20760;-53
2022/07/14 12:22:50;;;;;;;4.30;3.90;;;29.60;1.00;;;;;;5051169;28;20481;-54
2022/07/14 12:25:37;;;;;;;4.60;3.57;;;30.10;1.00;;;;;;5064605;28;20171;-55
2022/07/14 12:28:05;;;;;;;6.60;3.67;;;30.20;1.00;;;;;;5071722;28;20896;-55
2022/07/14 12:30:53;;;;;;;3.70;3.40;;;30.20;1.00;;;;;;5070918;28;20953;-54
2022/07/14 12:33:22;;;;;;;3.87;3.40;;;29.30;1.00;;;;;;5071031;28;20472;-53
2022/07/14 12:35:51;;;;;;;3.87;3.57;;;29.20;1.00;;;;;;5071027;28;20441;-56
2022/07/14 12:38:17;;;;;;;4.30;3.60;;;29.40;1.00;;;;;;5071104;28;21751;-57
2022/07/14 12:40:50;;;;;;;4.77;4.10;;;29.50;1.00;;;;;;5071300;28;20529;-55
2022/07/14 12:43:16;;;;;;;3.73;3.43;;;29.00;1.00;;;;;;5055171;28;21066;-53
2022/07/14 12:45:59;;;;;;;3.70;3.40;;;28.60;1.00;;;;;;5050473;28;20537;-54
2022/07/14 12:48:25;;;;;;;5.20;3.67;;;28.70;1.00;;;;;;5050908;28;20538;-54
2022/07/14 12:50:50;;;;;;;4.17;3.30;;;29.20;1.00;;;;;;5051338;28;20439;-55
2022/07/14 12:53:17;;;;;;;3.90;3.60;;;29.70;1.00;;;;;;5050579;28;20474;-55
2022/07/14 12:55:48;;;;;;;4.47;3.40;;;29.70;1.00;;;;;;5050766;28;20176;-54
2022/07/14 12:58:15;;;;;;;4.17;3.77;;;29.60;1.00;;;;;;5050828;28;20480;-55
2022/07/14 13:00:44;;;;;;;4.30;3.87;;;29.50;1.00;;;;;;5050213;28;20445;-56
2022/07/14 13:03:15;;;;;;;9.23;3.27;;;29.60;1.00;;;;;;5062969;28;20446;-53
2022/07/14 13:05:45;;;;;;;4.83;3.47;;;29.70;1.00;;;;;;5070347;28;20795;-56
2022/07/14 13:08:32;;;;;;;4.90;3.60;;;29.40;1.00;;;;;;5056981;28;20451;-54
2022/07/14 13:11:00;;;;;;;3.30;3.00;;;29.10;1.00;;;;;;5050529;28;20564;-55
2022/07/14 13:13:31;;;;;;;6.30;3.20;;;29.20;1.00;;;;;;5056652;28;21016;-54
2022/07/14 13:16:23;;;;;;;4.00;3.60;;;28.90;1.00;;;;;;5064923;28;20843;-54
2022/07/14 13:19:04;;;;;;;7.23;3.50;;;29.00;1.00;;;;;;5049951;28;20924;-55